sensor_id;sensor_type;location;lat;lon;timestamp;P1;durP1;ratioP1;P2;durP2;ratioP2
23754;SDS011;12057;52.042;6.830;2022-08-06T00:03:33;5.47;;;2.10;;
23754;SDS011;12057;52.042;6.830;2022-08-06T00:08:34;13.23;;;1.93;;
23754;SDS011;12057;52.042;6.830;2022-08-06T00:13:35;5.00;;;1.90;;
23754;SDS011;12057;52.042;6.830;2022-08-06T00:18:35;3.10;;;1.77;;
23754;SDS011;12057;52.042;6.830;2022-08-06T00:23:36;8.97;;;2.20;;
23754;SDS011;12057;52.042;6.830;2022-08-06T00:28:37;6.77;;;2.23;;
23754;SDS011;12057;52.042;6.830;2022-08-06T00:33:38;9.87;;;3.33;;
23754;SDS011;12057;52.042;6.830;2022-08-06T00:38:41;10.35;;;2.72;;
23754;SDS011;12057;52.042;6.830;2022-08-06T00:43:42;11.17;;;3.17;;
23754;SDS011;12057;52.042;6.830;2022-08-06T00:48:43;11.07;;;2.97;;
23754;SDS011;12057;52.042;6.830;2022-08-06T00:53:44;11.37;;;3.13;;
23754;SDS011;12057;52.042;6.830;2022-08-06T00:58:45;13.07;;;3.67;;
23754;SDS011;12057;52.042;6.830;2022-08-06T01:03:46;8.23;;;3.20;;
23754;SDS011;12057;52.042;6.830;2022-08-06T01:08:47;10.43;;;3.05;;
23754;SDS011;12057;52.042;6.830;2022-08-06T01:13:48;11.37;;;3.23;;
23754;SDS011;12057;52.042;6.830;2022-08-06T01:29:39;7.85;;;2.92;;
23754;SDS011;12057;52.042;6.830;2022-08-06T01:34:49;13.88;;;3.28;;
23754;SDS011;12057;52.042;6.830;2022-08-06T01:39:55;16.52;;;4.25;;
23754;SDS011;12057;52.042;6.830;2022-08-06T01:45:00;11.70;;;3.63;;
23754;SDS011;12057;52.042;6.830;2022-08-06T01:50:04;27.83;;;3.60;;
23754;SDS011;12057;52.042;6.830;2022-08-06T01:55:07;15.32;;;3.13;;
23754;SDS011;12057;52.042;6.830;2022-08-06T02:00:11;10.68;;;3.40;;
23754;SDS011;12057;52.042;6.830;2022-08-06T02:05:13;12.95;;;3.97;;
23754;SDS011;12057;52.042;6.830;2022-08-06T02:10:17;13.07;;;3.67;;
23754;SDS011;12057;52.042;6.830;2022-08-06T02:15:23;8.23;;;3.80;;
23754;SDS011;12057;52.042;6.830;2022-08-06T02:20:36;17.35;;;3.97;;
23754;SDS011;12057;52.042;6.830;2022-08-06T02:25:40;6.38;;;3.47;;
23754;SDS011;12057;52.042;6.830;2022-08-06T02:30:44;16.83;;;3.78;;
23754;SDS011;12057;52.042;6.830;2022-08-06T02:35:48;16.08;;;4.32;;
23754;SDS011;12057;52.042;6.830;2022-08-06T02:41:30;12.68;;;4.20;;
23754;SDS011;12057;52.042;6.830;2022-08-06T02:46:42;8.07;;;3.58;;
23754;SDS011;12057;52.042;6.830;2022-08-06T02:51:53;7.93;;;4.63;;
23754;SDS011;12057;52.042;6.830;2022-08-06T02:56:59;16.10;;;5.35;;
23754;SDS011;12057;52.042;6.830;2022-08-06T03:02:02;9.02;;;4.25;;
23754;SDS011;12057;52.042;6.830;2022-08-06T03:07:07;12.43;;;3.83;;
23754;SDS011;12057;52.042;6.830;2022-08-06T03:12:10;20.17;;;3.85;;
23754;SDS011;12057;52.042;6.830;2022-08-06T03:22:12;6.97;;;3.28;;
23754;SDS011;12057;52.042;6.830;2022-08-06T03:27:16;17.02;;;3.65;;
23754;SDS011;12057;52.042;6.830;2022-08-06T03:32:19;6.00;;;3.78;;
23754;SDS011;12057;52.042;6.830;2022-08-06T03:37:21;16.52;;;3.80;;
23754;SDS011;12057;52.042;6.830;2022-08-06T03:42:23;22.83;;;4.32;;
23754;SDS011;12057;52.042;6.830;2022-08-06T03:47:31;11.57;;;3.80;;
23754;SDS011;12057;52.042;6.830;2022-08-06T03:52:48;6.53;;;3.03;;
23754;SDS011;12057;52.042;6.830;2022-08-06T03:57:53;10.50;;;4.10;;
23754;SDS011;12057;52.042;6.830;2022-08-06T04:02:57;9.80;;;3.58;;
23754;SDS011;12057;52.042;6.830;2022-08-06T04:08:01;11.38;;;4.38;;
23754;SDS011;12057;52.042;6.830;2022-08-06T04:13:09;14.48;;;4.10;;
23754;SDS011;12057;52.042;6.830;2022-08-06T04:18:14;7.03;;;3.47;;
23754;SDS011;12057;52.042;6.830;2022-08-06T04:23:20;7.70;;;3.38;;
23754;SDS011;12057;52.042;6.830;2022-08-06T04:28:21;10.63;;;4.07;;
23754;SDS011;12057;52.042;6.830;2022-08-06T04:33:24;9.35;;;4.18;;
23754;SDS011;12057;52.042;6.830;2022-08-06T04:38:27;10.45;;;3.97;;
23754;SDS011;12057;52.042;6.830;2022-08-06T04:43:31;9.63;;;4.07;;
23754;SDS011;12057;52.042;6.830;2022-08-06T04:48:33;9.25;;;3.63;;
23754;SDS011;12057;52.042;6.830;2022-08-06T04:53:38;11.85;;;3.50;;
23754;SDS011;12057;52.042;6.830;2022-08-06T04:58:40;8.10;;;3.70;;
23754;SDS011;12057;52.042;6.830;2022-08-06T05:03:41;10.35;;;4.80;;
23754;SDS011;12057;52.042;6.830;2022-08-06T05:08:42;9.30;;;4.80;;
23754;SDS011;12057;52.042;6.830;2022-08-06T05:13:45;12.15;;;4.70;;
23754;SDS011;12057;52.042;6.830;2022-08-06T05:18:50;16.05;;;4.63;;
23754;SDS011;12057;52.042;6.830;2022-08-06T05:23:56;16.27;;;5.05;;
23754;SDS011;12057;52.042;6.830;2022-08-06T05:28:58;8.63;;;4.80;;
23754;SDS011;12057;52.042;6.830;2022-08-06T05:33:59;11.90;;;5.00;;
23754;SDS011;12057;52.042;6.830;2022-08-06T05:39:00;8.90;;;4.43;;
23754;SDS011;12057;52.042;6.830;2022-08-06T05:44:01;12.93;;;4.73;;
23754;SDS011;12057;52.042;6.830;2022-08-06T05:49:09;13.50;;;4.43;;
23754;SDS011;12057;52.042;6.830;2022-08-06T05:54:17;13.40;;;4.75;;
23754;SDS011;12057;52.042;6.830;2022-08-06T05:59:49;13.77;;;4.38;;
23754;SDS011;12057;52.042;6.830;2022-08-06T06:04:58;16.92;;;4.35;;
23754;SDS011;12057;52.042;6.830;2022-08-06T06:16:05;17.00;;;4.70;;
23754;SDS011;12057;52.042;6.830;2022-08-06T06:21:10;18.10;;;4.10;;
23754;SDS011;12057;52.042;6.830;2022-08-06T06:31:34;9.80;;;3.58;;
23754;SDS011;12057;52.042;6.830;2022-08-06T06:42:11;11.80;;;3.92;;
23754;SDS011;12057;52.042;6.830;2022-08-06T06:47:41;6.40;;;3.28;;
23754;SDS011;12057;52.042;6.830;2022-08-06T06:52:51;5.32;;;2.95;;
23754;SDS011;12057;52.042;6.830;2022-08-06T06:57:55;10.02;;;2.63;;
23754;SDS011;12057;52.042;6.830;2022-08-06T07:03:04;4.43;;;2.45;;
23754;SDS011;12057;52.042;6.830;2022-08-06T07:08:06;12.90;;;1.58;;
23754;SDS011;12057;52.042;6.830;2022-08-06T07:13:09;6.63;;;1.90;;
23754;SDS011;12057;52.042;6.830;2022-08-06T07:18:11;11.18;;;1.60;;
23754;SDS011;12057;52.042;6.830;2022-08-06T07:23:14;11.90;;;1.45;;
23754;SDS011;12057;52.042;6.830;2022-08-06T07:28:16;6.55;;;1.80;;
23754;SDS011;12057;52.042;6.830;2022-08-06T07:33:18;7.07;;;1.63;;
23754;SDS011;12057;52.042;6.830;2022-08-06T07:38:20;7.43;;;1.10;;
23754;SDS011;12057;52.042;6.830;2022-08-06T07:43:24;9.02;;;1.00;;
23754;SDS011;12057;52.042;6.830;2022-08-06T07:48:47;6.90;;;1.35;;
23754;SDS011;12057;52.042;6.830;2022-08-06T07:53:52;6.20;;;1.05;;
23754;SDS011;12057;52.042;6.830;2022-08-06T07:58:54;12.15;;;1.55;;
23754;SDS011;12057;52.042;6.830;2022-08-06T08:03:55;13.73;;;3.47;;
23754;SDS011;12057;52.042;6.830;2022-08-06T08:09:16;2.72;;;1.00;;
23754;SDS011;12057;52.042;6.830;2022-08-06T08:14:21;2.95;;;0.52;;
23754;SDS011;12057;52.042;6.830;2022-08-06T08:19:27;2.75;;;0.82;;
23754;SDS011;12057;52.042;6.830;2022-08-06T08:24:33;5.18;;;0.70;;
23754;SDS011;12057;52.042;6.830;2022-08-06T08:29:34;9.63;;;0.98;;
23754;SDS011;12057;52.042;6.830;2022-08-06T08:34:35;2.47;;;1.10;;
23754;SDS011;12057;52.042;6.830;2022-08-06T08:39:36;13.70;;;1.07;;
23754;SDS011;12057;52.042;6.830;2022-08-06T08:44:38;2.53;;;0.65;;
23754;SDS011;12057;52.042;6.830;2022-08-06T08:49:41;6.97;;;1.02;;
23754;SDS011;12057;52.042;6.830;2022-08-06T08:54:48;3.95;;;0.63;;
23754;SDS011;12057;52.042;6.830;2022-08-06T08:59:51;3.97;;;0.85;;
23754;SDS011;12057;52.042;6.830;2022-08-06T09:04:53;1.48;;;0.55;;
23754;SDS011;12057;52.042;6.830;2022-08-06T09:14:55;3.28;;;0.40;;
23754;SDS011;12057;52.042;6.830;2022-08-06T09:19:56;8.83;;;0.73;;
23754;SDS011;12057;52.042;6.830;2022-08-06T09:24:57;4.70;;;0.80;;
23754;SDS011;12057;52.042;6.830;2022-08-06T09:29:59;2.73;;;0.53;;
23754;SDS011;12057;52.042;6.830;2022-08-06T09:35:02;2.00;;;0.30;;
23754;SDS011;12057;52.042;6.830;2022-08-06T09:40:18;1.42;;;0.38;;
23754;SDS011;12057;52.042;6.830;2022-08-06T09:45:20;7.45;;;0.60;;
23754;SDS011;12057;52.042;6.830;2022-08-06T09:50:41;3.78;;;0.68;;
23754;SDS011;12057;52.042;6.830;2022-08-06T09:55:43;3.25;;;0.60;;
23754;SDS011;12057;52.042;6.830;2022-08-06T10:00:45;3.45;;;0.82;;
23754;SDS011;12057;52.042;6.830;2022-08-06T10:05:45;2.77;;;0.70;;
23754;SDS011;12057;52.042;6.830;2022-08-06T10:10:49;3.57;;;0.60;;
23754;SDS011;12057;52.042;6.830;2022-08-06T10:15:51;3.25;;;0.40;;
23754;SDS011;12057;52.042;6.830;2022-08-06T10:21:07;4.38;;;0.75;;
23754;SDS011;12057;52.042;6.830;2022-08-06T10:26:10;3.70;;;0.68;;
23754;SDS011;12057;52.042;6.830;2022-08-06T10:31:13;6.32;;;0.70;;
23754;SDS011;12057;52.042;6.830;2022-08-06T10:36:15;3.95;;;0.85;;
23754;SDS011;12057;52.042;6.830;2022-08-06T10:41:21;4.22;;;0.55;;
23754;SDS011;12057;52.042;6.830;2022-08-06T10:46:22;5.78;;;0.82;;
23754;SDS011;12057;52.042;6.830;2022-08-06T10:51:25;5.82;;;1.20;;
23754;SDS011;12057;52.042;6.830;2022-08-06T10:56:29;10.38;;;1.05;;
23754;SDS011;12057;52.042;6.830;2022-08-06T11:01:52;2.67;;;0.50;;
23754;SDS011;12057;52.042;6.830;2022-08-06T11:07:00;3.13;;;0.60;;
23754;SDS011;12057;52.042;6.830;2022-08-06T11:22:46;3.60;;;0.50;;
23754;SDS011;12057;52.042;6.830;2022-08-06T11:32:50;2.78;;;0.43;;
23754;SDS011;12057;52.042;6.830;2022-08-06T11:37:52;6.57;;;0.50;;
23754;SDS011;12057;52.042;6.830;2022-08-06T11:42:53;4.50;;;0.40;;
23754;SDS011;12057;52.042;6.830;2022-08-06T11:48:03;1.70;;;0.37;;
23754;SDS011;12057;52.042;6.830;2022-08-06T11:53:05;2.58;;;0.50;;
23754;SDS011;12057;52.042;6.830;2022-08-06T12:03:14;2.90;;;0.40;;
23754;SDS011;12057;52.042;6.830;2022-08-06T12:13:36;0.80;;;0.37;;
23754;SDS011;12057;52.042;6.830;2022-08-06T12:18:38;2.80;;;0.30;;
23754;SDS011;12057;52.042;6.830;2022-08-06T12:23:39;5.25;;;0.60;;
23754;SDS011;12057;52.042;6.830;2022-08-06T12:28:42;3.58;;;0.50;;
23754;SDS011;12057;52.042;6.830;2022-08-06T12:33:43;1.75;;;0.30;;
23754;SDS011;12057;52.042;6.830;2022-08-06T12:38:44;6.33;;;0.87;;
23754;SDS011;12057;52.042;6.830;2022-08-06T12:43:54;4.40;;;0.57;;
23754;SDS011;12057;52.042;6.830;2022-08-06T12:48:55;6.50;;;0.63;;
23754;SDS011;12057;52.042;6.830;2022-08-06T12:54:00;7.15;;;1.10;;
23754;SDS011;12057;52.042;6.830;2022-08-06T12:59:07;2.13;;;0.60;;
23754;SDS011;12057;52.042;6.830;2022-08-06T13:04:10;1.67;;;0.70;;
23754;SDS011;12057;52.042;6.830;2022-08-06T13:09:12;3.15;;;0.40;;
23754;SDS011;12057;52.042;6.830;2022-08-06T13:14:13;0.60;;;0.53;;
23754;SDS011;12057;52.042;6.830;2022-08-06T13:19:15;6.50;;;0.82;;
23754;SDS011;12057;52.042;6.830;2022-08-06T13:24:24;8.15;;;0.80;;
23754;SDS011;12057;52.042;6.830;2022-08-06T13:29:26;3.80;;;0.65;;
23754;SDS011;12057;52.042;6.830;2022-08-06T13:34:28;2.53;;;0.65;;
23754;SDS011;12057;52.042;6.830;2022-08-06T13:39:30;4.03;;;0.80;;
23754;SDS011;12057;52.042;6.830;2022-08-06T13:44:37;10.15;;;0.95;;
23754;SDS011;12057;52.042;6.830;2022-08-06T13:49:39;1.30;;;0.55;;
23754;SDS011;12057;52.042;6.830;2022-08-06T13:54:40;3.13;;;0.60;;
23754;SDS011;12057;52.042;6.830;2022-08-06T13:59:40;1.43;;;0.70;;
23754;SDS011;12057;52.042;6.830;2022-08-06T14:04:42;6.18;;;0.60;;
23754;SDS011;12057;52.042;6.830;2022-08-06T14:09:42;1.60;;;0.60;;
23754;SDS011;12057;52.042;6.830;2022-08-06T14:14:43;4.00;;;0.60;;
23754;SDS011;12057;52.042;6.830;2022-08-06T14:19:44;4.80;;;0.80;;
23754;SDS011;12057;52.042;6.830;2022-08-06T14:24:45;3.73;;;0.90;;
23754;SDS011;12057;52.042;6.830;2022-08-06T14:29:46;3.80;;;1.03;;
23754;SDS011;12057;52.042;6.830;2022-08-06T14:34:46;4.27;;;1.27;;
23754;SDS011;12057;52.042;6.830;2022-08-06T14:44:48;1.83;;;1.10;;
23754;SDS011;12057;52.042;6.830;2022-08-06T14:49:55;7.95;;;1.00;;
23754;SDS011;12057;52.042;6.830;2022-08-06T14:54:56;1.97;;;0.80;;
23754;SDS011;12057;52.042;6.830;2022-08-06T14:59:56;5.73;;;1.00;;
23754;SDS011;12057;52.042;6.830;2022-08-06T15:04:57;7.43;;;1.43;;
23754;SDS011;12057;52.042;6.830;2022-08-06T15:09:58;6.70;;;0.88;;
23754;SDS011;12057;52.042;6.830;2022-08-06T15:14:59;2.80;;;1.13;;
23754;SDS011;12057;52.042;6.830;2022-08-06T15:20:01;3.47;;;0.88;;
23754;SDS011;12057;52.042;6.830;2022-08-06T15:25:05;1.83;;;1.00;;
23754;SDS011;12057;52.042;6.830;2022-08-06T15:30:06;6.25;;;0.93;;
23754;SDS011;12057;52.042;6.830;2022-08-06T15:35:07;2.45;;;0.77;;
23754;SDS011;12057;52.042;6.830;2022-08-06T15:45:10;3.77;;;1.07;;
23754;SDS011;12057;52.042;6.830;2022-08-06T15:55:12;3.50;;;1.30;;
23754;SDS011;12057;52.042;6.830;2022-08-06T16:00:13;1.93;;;0.60;;
23754;SDS011;12057;52.042;6.830;2022-08-06T16:05:15;2.00;;;0.65;;
23754;SDS011;12057;52.042;6.830;2022-08-06T16:10:16;6.50;;;1.50;;
23754;SDS011;12057;52.042;6.830;2022-08-06T16:15:17;4.10;;;1.50;;
23754;SDS011;12057;52.042;6.830;2022-08-06T16:20:18;4.40;;;1.85;;
23754;SDS011;12057;52.042;6.830;2022-08-06T16:25:21;4.00;;;1.77;;
23754;SDS011;12057;52.042;6.830;2022-08-06T16:30:22;2.80;;;1.60;;
23754;SDS011;12057;52.042;6.830;2022-08-06T16:35:23;8.60;;;1.97;;
23754;SDS011;12057;52.042;6.830;2022-08-06T16:40:24;5.77;;;2.03;;
23754;SDS011;12057;52.042;6.830;2022-08-06T16:45:25;5.38;;;1.40;;
23754;SDS011;12057;52.042;6.830;2022-08-06T16:50:27;4.80;;;1.60;;
23754;SDS011;12057;52.042;6.830;2022-08-06T16:55:27;6.40;;;1.70;;
23754;SDS011;12057;52.042;6.830;2022-08-06T17:00:28;5.03;;;1.63;;
23754;SDS011;12057;52.042;6.830;2022-08-06T17:05:29;3.83;;;1.80;;
23754;SDS011;12057;52.042;6.830;2022-08-06T17:10:31;2.97;;;1.52;;
23754;SDS011;12057;52.042;6.830;2022-08-06T17:15:32;1.77;;;1.20;;
23754;SDS011;12057;52.042;6.830;2022-08-06T17:20:33;3.93;;;1.57;;
23754;SDS011;12057;52.042;6.830;2022-08-06T17:25:34;4.73;;;1.50;;
23754;SDS011;12057;52.042;6.830;2022-08-06T17:30:35;5.40;;;1.30;;
23754;SDS011;12057;52.042;6.830;2022-08-06T17:35:36;6.43;;;1.77;;
23754;SDS011;12057;52.042;6.830;2022-08-06T17:40:37;3.87;;;1.80;;
23754;SDS011;12057;52.042;6.830;2022-08-06T17:45:38;5.53;;;1.70;;
23754;SDS011;12057;52.042;6.830;2022-08-06T17:50:39;7.97;;;1.80;;
23754;SDS011;12057;52.042;6.830;2022-08-06T17:55:40;4.23;;;1.70;;
23754;SDS011;12057;52.042;6.830;2022-08-06T18:00:40;10.17;;;2.03;;
23754;SDS011;12057;52.042;6.830;2022-08-06T18:05:41;2.50;;;1.60;;
23754;SDS011;12057;52.042;6.830;2022-08-06T18:10:43;7.10;;;2.28;;
23754;SDS011;12057;52.042;6.830;2022-08-06T18:15:44;5.43;;;1.97;;
23754;SDS011;12057;52.042;6.830;2022-08-06T18:20:45;3.80;;;1.90;;
23754;SDS011;12057;52.042;6.830;2022-08-06T18:25:46;7.90;;;2.40;;
23754;SDS011;12057;52.042;6.830;2022-08-06T18:30:47;5.82;;;2.75;;
23754;SDS011;12057;52.042;6.830;2022-08-06T18:35:48;15.77;;;3.20;;
23754;SDS011;12057;52.042;6.830;2022-08-06T18:40:49;12.43;;;2.90;;
23754;SDS011;12057;52.042;6.830;2022-08-06T18:45:50;5.20;;;2.43;;
23754;SDS011;12057;52.042;6.830;2022-08-06T18:55:53;5.18;;;2.03;;
23754;SDS011;12057;52.042;6.830;2022-08-06T19:00:54;5.87;;;2.70;;
23754;SDS011;12057;52.042;6.830;2022-08-06T19:05:55;4.50;;;2.00;;
23754;SDS011;12057;52.042;6.830;2022-08-06T19:10:56;12.20;;;2.13;;
23754;SDS011;12057;52.042;6.830;2022-08-06T19:15:58;10.48;;;2.65;;
23754;SDS011;12057;52.042;6.830;2022-08-06T19:20:59;4.73;;;2.17;;
23754;SDS011;12057;52.042;6.830;2022-08-06T19:26:00;8.73;;;1.90;;
23754;SDS011;12057;52.042;6.830;2022-08-06T19:31:01;3.20;;;1.90;;
23754;SDS011;12057;52.042;6.830;2022-08-06T19:36:04;10.38;;;2.03;;
23754;SDS011;12057;52.042;6.830;2022-08-06T19:41:05;13.00;;;2.80;;
23754;SDS011;12057;52.042;6.830;2022-08-06T19:46:06;4.77;;;2.60;;
23754;SDS011;12057;52.042;6.830;2022-08-06T19:51:07;8.10;;;2.60;;
23754;SDS011;12057;52.042;6.830;2022-08-06T19:56:09;7.07;;;2.30;;
23754;SDS011;12057;52.042;6.830;2022-08-06T20:01:10;5.80;;;2.00;;
23754;SDS011;12057;52.042;6.830;2022-08-06T20:06:10;3.00;;;2.00;;
23754;SDS011;12057;52.042;6.830;2022-08-06T20:11:12;5.03;;;2.60;;
23754;SDS011;12057;52.042;6.830;2022-08-06T20:16:13;4.20;;;2.67;;
23754;SDS011;12057;52.042;6.830;2022-08-06T20:21:13;11.43;;;3.17;;
23754;SDS011;12057;52.042;6.830;2022-08-06T20:26:14;4.83;;;2.70;;
23754;SDS011;12057;52.042;6.830;2022-08-06T20:31:15;7.90;;;3.43;;
23754;SDS011;12057;52.042;6.830;2022-08-06T20:36:16;7.60;;;3.47;;
23754;SDS011;12057;52.042;6.830;2022-08-06T20:41:20;6.50;;;4.40;;
23754;SDS011;12057;52.042;6.830;2022-08-06T20:46:20;10.90;;;5.07;;
23754;SDS011;12057;52.042;6.830;2022-08-06T20:51:21;13.17;;;5.07;;
23754;SDS011;12057;52.042;6.830;2022-08-06T20:56:25;13.67;;;6.33;;
23754;SDS011;12057;52.042;6.830;2022-08-06T21:01:26;21.23;;;5.93;;
23754;SDS011;12057;52.042;6.830;2022-08-06T21:06:27;13.20;;;6.00;;
23754;SDS011;12057;52.042;6.830;2022-08-06T21:11:28;13.13;;;5.53;;
23754;SDS011;12057;52.042;6.830;2022-08-06T21:16:28;8.83;;;4.17;;
23754;SDS011;12057;52.042;6.830;2022-08-06T21:21:34;7.80;;;3.60;;
23754;SDS011;12057;52.042;6.830;2022-08-06T21:26:37;10.05;;;3.80;;
23754;SDS011;12057;52.042;6.830;2022-08-06T21:31:38;6.53;;;3.10;;
23754;SDS011;12057;52.042;6.830;2022-08-06T21:36:39;5.47;;;3.22;;
23754;SDS011;12057;52.042;6.830;2022-08-06T21:41:39;5.70;;;3.17;;
23754;SDS011;12057;52.042;6.830;2022-08-06T21:51:42;11.75;;;3.08;;
23754;SDS011;12057;52.042;6.830;2022-08-06T21:56:43;7.50;;;3.50;;
23754;SDS011;12057;52.042;6.830;2022-08-06T22:01:45;7.75;;;3.45;;
23754;SDS011;12057;52.042;6.830;2022-08-06T22:06:46;9.40;;;4.07;;
23754;SDS011;12057;52.042;6.830;2022-08-06T22:11:47;10.43;;;3.63;;
23754;SDS011;12057;52.042;6.830;2022-08-06T22:16:48;8.97;;;2.80;;
23754;SDS011;12057;52.042;6.830;2022-08-06T22:21:48;8.27;;;2.87;;
23754;SDS011;12057;52.042;6.830;2022-08-06T22:26:49;9.43;;;3.50;;
23754;SDS011;12057;52.042;6.830;2022-08-06T22:31:50;6.40;;;3.30;;
23754;SDS011;12057;52.042;6.830;2022-08-06T22:36:51;12.87;;;4.00;;
23754;SDS011;12057;52.042;6.830;2022-08-06T22:41:52;13.83;;;5.10;;
23754;SDS011;12057;52.042;6.830;2022-08-06T22:46:53;20.93;;;4.37;;
23754;SDS011;12057;52.042;6.830;2022-08-06T22:51:53;16.33;;;4.70;;
23754;SDS011;12057;52.042;6.830;2022-08-06T22:56:54;13.03;;;4.93;;
23754;SDS011;12057;52.042;6.830;2022-08-06T23:01:55;10.43;;;5.37;;
23754;SDS011;12057;52.042;6.830;2022-08-06T23:06:56;18.73;;;5.10;;
23754;SDS011;12057;52.042;6.830;2022-08-06T23:11:57;11.73;;;5.43;;
23754;SDS011;12057;52.042;6.830;2022-08-06T23:16:57;8.27;;;4.70;;
23754;SDS011;12057;52.042;6.830;2022-08-06T23:21:58;9.67;;;5.20;;
23754;SDS011;12057;52.042;6.830;2022-08-06T23:26:59;14.30;;;4.80;;
23754;SDS011;12057;52.042;6.830;2022-08-06T23:32:00;14.27;;;4.43;;
23754;SDS011;12057;52.042;6.830;2022-08-06T23:37:02;9.07;;;4.70;;
23754;SDS011;12057;52.042;6.830;2022-08-06T23:42:05;16.38;;;5.15;;
23754;SDS011;12057;52.042;6.830;2022-08-06T23:47:06;13.20;;;5.50;;
23754;SDS011;12057;52.042;6.830;2022-08-06T23:52:07;12.67;;;6.37;;
23754;SDS011;12057;52.042;6.830;2022-08-06T23:57:08;10.67;;;5.27;;
